Time;durP1;ratioP1;P1;durP2;ratioP2;P2;SDS_P1;SDS_P2;PMS_P1;PMS_P2;Temp;Humidity;BMP_temperature;BMP_pressure;BME280_temperature;BME280_humidity;BME280_pressure;Samples;Min_cycle;Max_cycle;Signal;HPM_P1;HPM_P2
2021/03/19 00:01:29;;;;;;;;;;;;;;;19.77;36.00;100648.94;5059546;28;956;-43
2021/03/19 00:03:54;;;;;;;;;;;;;;;20.12;35.45;100646.78;5058964;28;736;-43
2021/03/19 00:06:20;;;;;;;;;;;;;;;19.80;35.86;100649.19;5059572;28;728;-43
2021/03/19 00:08:45;;;;;;;;;;;;;;;19.65;36.00;100641.09;5059382;28;772;-42
2021/03/19 00:11:11;;;;;;;;;;;;;;;19.14;37.30;100643.41;5058709;28;2038;-42
2021/03/19 00:13:36;;;;;;;;;;;;;;;19.55;36.46;100636.53;5059277;28;800;-42
2021/03/19 00:16:02;;;;;;;;;;;;;;;20.30;34.82;100634.88;5059243;28;851;-43
2021/03/19 00:18:27;;;;;;;;;;;;;;;19.87;35.62;100631.44;5041359;28;1078;-42
2021/03/19 00:20:53;;;;;;;;;;;;;;;19.83;35.72;100634.78;5059149;28;799;-43
2021/03/19 00:23:18;;;;;;;;;;;;;;;19.27;36.90;100619.00;5058997;28;737;-43
2021/03/19 00:25:44;;;;;;;;;;;;;;;19.44;36.80;100613.78;5058660;28;744;-43
2021/03/19 00:28:14;;;;;;;;;;;;;;;20.16;35.08;100609.97;5058955;28;861;-43
2021/03/19 00:30:40;;;;;;;;;;;;;;;19.85;35.52;100617.91;5058770;28;1972;-43
2021/03/19 00:33:06;;;;;;;;;;;;;;;19.81;35.84;100611.34;5058490;28;1137;-43
2021/03/19 00:35:31;;;;;;;;;;;;;;;19.31;36.71;100609.03;5058722;28;856;-43
2021/03/19 00:37:57;;;;;;;;;;;;;;;19.27;36.97;100619.00;5057524;28;872;-43
2021/03/19 00:40:22;;;;;;;;;;;;;;;20.10;35.25;100608.41;5058346;28;830;-43
2021/03/19 00:42:47;;;;;;;;;;;;;;;20.05;35.17;100607.69;5058737;28;776;-43
2021/03/19 00:45:13;;;;;;;;;;;;;;;19.88;35.60;100610.97;5058777;28;796;-45
2021/03/19 00:47:39;;;;;;;;;;;;;;;19.52;36.19;100600.44;5058363;28;952;-43
2021/03/19 00:50:08;;;;;;;;;;;;;;;18.98;37.40;100606.97;5058924;28;783;-43
2021/03/19 00:52:33;;;;;;;;;;;;;;;19.80;35.95;100602.28;5058229;28;1974;-43
2021/03/19 00:54:58;;;;;;;;;;;;;;;20.28;35.03;100597.63;5058519;28;752;-43
2021/03/19 00:57:24;;;;;;;;;;;;;;;19.78;35.67;100590.69;5058408;28;748;-44
2021/03/19 00:59:49;;;;;;;;;;;;;;;19.70;35.94;100594.13;5058429;28;768;-43
2021/03/19 01:02:15;;;;;;;;;;;;;;;19.01;37.22;100591.75;5058183;28;963;-44
2021/03/19 01:04:40;;;;;;;;;;;;;;;19.47;36.80;100596.69;5058220;28;760;-42
2021/03/19 01:07:05;;;;;;;;;;;;;;;20.29;34.89;100589.03;5058155;28;770;-43
2021/03/19 01:09:31;;;;;;;;;;;;;;;19.95;35.52;100589.34;5058288;28;824;-52
2021/03/19 01:11:56;;;;;;;;;;;;;;;19.82;35.80;100601.97;5057812;28;1914;-43
2021/03/19 01:14:22;;;;;;;;;;;;;;;19.46;36.46;100600.53;5057901;28;760;-44
2021/03/19 01:16:47;;;;;;;;;;;;;;;19.11;37.25;100588.88;5058251;28;936;-43
2021/03/19 01:19:12;;;;;;;;;;;;;;;20.06;35.40;100588.03;5057764;28;860;-43
2021/03/19 01:21:38;;;;;;;;;;;;;;;20.07;35.14;100589.69;5057795;28;775;-43
2021/03/19 01:24:04;;;;;;;;;;;;;;;19.76;35.95;100590.16;5058020;28;774;-43
2021/03/19 01:26:29;;;;;;;;;;;;;;;19.49;36.18;100591.66;5057841;28;787;-42
2021/03/19 01:28:55;;;;;;;;;;;;;;;19.07;37.37;100598.00;5058147;28;744;-44
2021/03/19 01:31:20;;;;;;;;;;;;;;;19.85;35.74;100601.34;5058034;28;1913;-42
2021/03/19 01:33:46;;;;;;;;;;;;;;;20.13;35.04;100591.25;5057259;28;1088;-42
2021/03/19 01:36:11;;;;;;;;;;;;;;;19.82;35.70;100596.44;5057375;28;786;-43
2021/03/19 01:38:37;;;;;;;;;;;;;;;19.54;36.10;100592.72;5057696;28;796;-43
2021/03/19 01:41:03;;;;;;;;;;;;;;;19.29;37.02;100603.81;5057334;28;835;-42
2021/03/19 01:43:34;;;;;;;;;;;;;;;19.45;36.61;100598.91;5057353;28;808;-43
2021/03/19 01:46:18;;;;;;;;;;;;;;;20.23;35.12;100590.28;5057479;28;732;-43
2021/03/19 01:49:02;;;;;;;;;;;;;;;19.81;35.89;100598.41;5056678;28;991;-43
2021/03/19 01:51:46;;;;;;;;;;;;;;;19.73;35.69;100598.22;5057180;28;1985;-43
2021/03/19 01:54:35;;;;;;;;;;;;;;;18.90;37.42;100601.25;5057081;28;760;-43
2021/03/19 01:57:19;;;;;;;;;;;;;;;19.53;36.29;100600.19;5028666;28;1301;-43
2021/03/19 02:00:03;;;;;;;;;;;;;;;20.08;35.13;100596.88;5057274;28;749;-44
2021/03/19 02:02:48;;;;;;;;;;;;;;;19.74;35.88;100600.69;5057035;28;956;-43
2021/03/19 02:05:33;;;;;;;;;;;;;;;19.54;36.20;100606.50;5057009;28;740;-43
2021/03/19 02:08:17;;;;;;;;;;;;;;;19.15;37.32;100606.47;5057017;28;839;-43
2021/03/19 02:11:00;;;;;;;;;;;;;;;20.10;35.16;100600.13;5056500;28;1910;-43
2021/03/19 02:13:45;;;;;;;;;;;;;;;19.73;36.06;100603.75;5057323;28;753;-42
2021/03/19 02:16:28;;;;;;;;;;;;;;;19.81;35.59;100601.16;5056870;28;804;-43
2021/03/19 02:19:13;;;;;;;;;;;;;;;19.17;37.14;100606.16;5056630;28;824;-42
2021/03/19 02:21:57;;;;;;;;;;;;;;;19.65;36.13;100608.00;5057114;28;764;-42
2021/03/19 02:24:41;;;;;;;;;;;;;;;20.30;34.82;100595.38;5056467;28;764;-42
2021/03/19 02:27:25;;;;;;;;;;;;;;;19.85;35.64;100600.56;5056738;28;744;-44
2021/03/19 02:30:09;;;;;;;;;;;;;;;19.61;35.94;100602.25;5056740;28;800;-43
2021/03/19 02:32:35;;;;;;;;;;;;;;;18.90;37.31;100607.59;5055968;28;1902;-43
2021/03/19 02:35:03;;;;;;;;;;;;;;;19.71;36.02;100614.25;5038680;28;874;-43
2021/03/19 02:37:30;;;;;;;;;;;;;;;20.25;35.05;100612.06;5038771;28;847;-43
2021/03/19 02:39:55;;;;;;;;;;;;;;;19.86;35.77;100618.75;5056027;28;760;-44
2021/03/19 02:42:22;;;;;;;;;;;;;;;19.67;36.11;100620.38;5056566;28;760;-43
2021/03/19 02:44:47;;;;;;;;;;;;;;;19.19;37.06;100608.63;5038759;28;748;-43
2021/03/19 02:47:13;;;;;;;;;;;;;;;19.40;36.37;100609.97;5055851;28;1027;-43
2021/03/19 02:49:38;;;;;;;;;;;;;;;20.29;34.91;100619.41;5056451;28;772;-43
2021/03/19 02:52:04;;;;;;;;;;;;;;;20.10;34.98;100613.94;5056279;28;1910;-43
2021/03/19 02:54:29;;;;;;;;;;;;;;;19.83;35.56;100615.47;5056099;28;813;-43
2021/03/19 02:56:55;;;;;;;;;;;;;;;19.41;36.60;100617.16;5056278;28;808;-43
2021/03/19 02:59:20;;;;;;;;;;;;;;;19.24;37.12;100617.66;5037945;28;1509;-55
2021/03/19 03:01:46;;;;;;;;;;;;;;;20.10;35.37;100611.16;5055747;28;959;-44
2021/03/19 03:04:11;;;;;;;;;;;;;;;19.88;35.39;100605.47;5056202;28;744;-43
2021/03/19 03:06:46;;;;;;;;;;;;;;;19.78;35.83;100601.72;5055939;28;784;-44
2021/03/19 03:09:13;;;;;;;;;;;;;;;19.31;36.51;100598.81;5055795;28;729;-43
2021/03/19 03:11:38;;;;;;;;;;;;;;;18.94;37.69;100599.56;5056156;28;1972;-43
2021/03/19 03:14:05;;;;;;;;;;;;;;;19.99;35.32;100593.13;5056118;28;832;-43
2021/03/19 03:16:30;;;;;;;;;;;;;;;19.99;35.11;100595.91;5055727;28;983;-43
2021/03/19 03:18:55;;;;;;;;;;;;;;;19.82;35.53;100602.81;5056053;28;855;-43
2021/03/19 03:21:21;;;;;;;;;;;;;;;19.54;36.10;100589.97;5055870;28;820;-43
2021/03/19 03:23:46;;;;;;;;;;;;;;;18.83;37.59;100593.34;5055703;28;820;-43
2021/03/19 03:26:12;;;;;;;;;;;;;;;19.79;35.80;100603.38;5055987;28;804;-43
2021/03/19 03:28:37;;;;;;;;;;;;;;;20.17;34.78;100584.03;5055748;28;878;-43
2021/03/19 03:31:03;;;;;;;;;;;;;;;19.82;35.53;100586.25;5055579;28;1910;-43
2021/03/19 03:33:28;;;;;;;;;;;;;;;19.67;35.75;100580.94;5072469;28;1135;-44
2021/03/19 03:35:54;;;;;;;;;;;;;;;19.30;36.53;100588.88;5075934;28;740;-43
2021/03/19 03:38:21;;;;;;;;;;;;;;;19.86;35.40;100577.38;5075679;28;815;-43
2021/03/19 03:40:48;;;;;;;;;;;;;;;20.23;34.69;100582.00;5075879;28;824;-42
2021/03/19 03:43:14;;;;;;;;;;;;;;;19.76;35.56;100587.41;5075663;28;866;-43
2021/03/19 03:45:40;;;;;;;;;;;;;;;19.66;35.82;100593.91;5075440;28;737;-43
2021/03/19 03:48:06;;;;;;;;;;;;;;;19.06;36.97;100602.72;5057204;28;1034;-43
2021/03/19 03:50:32;;;;;;;;;;;;;;;19.55;36.27;100597.13;5075655;28;783;-42
2021/03/19 03:52:57;;;;;;;;;;;;;;;20.26;34.83;100594.34;5075966;28;1972;-43
2021/03/19 03:55:23;;;;;;;;;;;;;;;19.81;35.70;100600.31;5075656;28;740;-43
2021/03/19 03:57:48;;;;;;;;;;;;;;;19.75;35.79;100610.59;5075889;28;763;-43
2021/03/19 04:00:14;;;;;;;;;;;;;;;19.23;36.55;100609.69;5075683;28;859;-43
2021/03/19 04:02:40;;;;;;;;;;;;;;;19.54;36.51;100609.25;5074883;28;955;-45
2021/03/19 04:05:06;;;;;;;;;;;;;;;20.40;35.06;100605.41;5075803;28;732;-42
2021/03/19 04:07:31;;;;;;;;;;;;;;;19.92;35.72;100609.25;5075570;28;736;-44
2021/03/19 04:09:57;;;;;;;;;;;;;;;19.74;35.93;100617.25;5075705;28;752;-43
2021/03/19 04:12:22;;;;;;;;;;;;;;;19.42;36.79;100607.75;5079107;28;1973;-44
2021/03/19 04:14:48;;;;;;;;;;;;;;;18.95;37.69;100607.53;5078863;28;840;-43
2021/03/19 04:17:23;;;;;;;;;;;;;;;19.92;35.63;100610.09;5064518;28;821;-43
2021/03/19 04:19:49;;;;;;;;;;;;;;;20.25;34.91;100592.72;5042166;28;888;-44
2021/03/19 04:22:14;;;;;;;;;;;;;;;19.81;35.91;100601.16;5058839;28;816;-46
2021/03/19 04:24:39;;;;;;;;;;;;;;;19.68;36.10;100596.34;5058913;28;843;-43
2021/03/19 04:27:05;;;;;;;;;;;;;;;19.24;36.90;100597.53;5058851;28;966;-43
2021/03/19 04:29:30;;;;;;;;;;;;;;;19.30;37.07;100602.66;5058478;28;828;-43
2021/03/19 04:31:56;;;;;;;;;;;;;;;20.16;35.36;100596.19;5059369;28;1980;-43
2021/03/19 04:34:21;;;;;;;;;;;;;;;19.88;35.62;100610.97;5078816;28;868;-45
2021/03/19 04:36:48;;;;;;;;;;;;;;;19.82;35.63;100607.50;5078863;28;848;-48
2021/03/19 04:39:26;;;;;;;;;;;;;;;19.30;36.88;100608.19;5060775;28;784;-45
2021/03/19 04:41:53;;;;;;;;;;;;;;;19.28;37.12;100604.91;5061272;28;740;-43
2021/03/19 04:44:19;;;;;;;;;;;;;;;20.21;35.06;100608.25;5078587;28;764;-44
2021/03/19 04:46:44;;;;;;;;;;;;;;;20.02;35.14;100605.53;5058010;28;837;-45
2021/03/19 04:49:10;;;;;;;;;;;;;;;19.80;35.80;100609.75;5058499;28;880;-44
2021/03/19 04:51:35;;;;;;;;;;;;;;;19.43;36.41;100595.63;5058653;28;1906;-46
2021/03/19 04:54:01;;;;;;;;;;;;;;;19.04;37.14;100607.72;5058791;28;768;-59
2021/03/19 04:56:27;;;;;;;;;;;;;;;19.98;35.33;100603.38;5059592;28;1047;-47
2021/03/19 04:58:52;;;;;;;;;;;;;;;20.07;35.15;100592.44;5078674;28;717;-46
2021/03/19 05:01:18;;;;;;;;;;;;;;;19.72;35.89;100607.63;5078077;28;764;-47
2021/03/19 05:03:43;;;;;;;;;;;;;;;19.53;36.11;100599.34;5077422;28;1009;-45
2021/03/19 05:06:09;;;;;;;;;;;;;;;18.99;37.46;100602.25;5078196;28;751;-46
2021/03/19 05:08:34;;;;;;;;;;;;;;;19.92;35.61;100601.00;5078478;28;739;-45
2021/03/19 05:10:59;;;;;;;;;;;;;;;20.24;34.90;100602.94;5078292;28;1909;-46
2021/03/19 05:13:25;;;;;;;;;;;;;;;19.90;35.48;100609.56;5078025;28;776;-44
2021/03/19 05:15:50;;;;;;;;;;;;;;;19.77;35.66;100610.31;5077898;28;838;-45
2021/03/19 05:18:16;;;;;;;;;;;;;;;19.23;36.82;100604.16;5062506;28;951;-45
2021/03/19 05:20:41;;;;;;;;;;;;;;;19.19;37.04;100622.41;5058295;28;740;-47
2021/03/19 05:23:36;;;;;;;;;;;;;;;20.13;35.10;100607.00;5057252;28;815;-44
2021/03/19 05:26:01;;;;;;;;;;;;;;;19.90;35.54;100614.28;5040352;28;1382;-45
2021/03/19 05:28:28;;;;;;;;;;;;;;;19.74;35.86;100610.88;5057833;28;752;-45
2021/03/19 05:30:53;;;;;;;;;;;;;;;19.45;36.32;100606.34;5057571;28;1909;-44
2021/03/19 05:33:26;;;;;;;;;;;;;;;19.10;37.08;100614.78;5057480;28;1354;-45
2021/03/19 05:35:52;;;;;;;;;;;;;;;19.49;36.37;100610.97;5057595;28;717;-46
2021/03/19 05:38:17;;;;;;;;;;;;;;;20.29;34.89;100622.19;5057273;28;757;-45
2021/03/19 05:40:44;;;;;;;;;;;;;;;20.82;33.69;100622.94;5039725;28;795;-53
2021/03/19 05:43:21;;;;;;;;;;;;;;;20.42;34.19;100631.63;5057940;28;755;-44
2021/03/19 05:45:54;;;;;;;;;;;;;;;20.21;34.80;100620.09;5057026;28;784;-45
2021/03/19 05:48:19;;;;;;;;;;;;;;;19.52;36.16;100623.34;5057413;28;1010;-45
2021/03/19 05:50:45;;;;;;;;;;;;;;;19.04;37.05;100632.50;5039548;28;784;-51
2021/03/19 05:53:11;;;;;;;;;;;;;;;19.29;36.58;100634.13;5056607;28;1910;-45
2021/03/19 05:55:36;;;;;;;;;;;;;;;20.29;34.90;100640.69;5039389;28;820;-44
2021/03/19 05:58:02;;;;;;;;;;;;;;;20.03;35.24;100640.28;5057299;28;787;-44
2021/03/19 06:00:27;;;;;;;;;;;;;;;19.85;35.37;100645.50;5039508;28;841;-44
2021/03/19 06:02:53;;;;;;;;;;;;;;;19.52;35.97;100641.81;5057192;28;1007;-44
2021/03/19 06:05:41;;;;;;;;;;;;;;;19.26;36.62;100650.44;5057087;28;848;-44
2021/03/19 06:08:07;;;;;;;;;;;;;;;19.66;36.11;100648.25;5054661;28;1511;-44
2021/03/19 06:10:36;;;;;;;;;;;;;;;20.42;34.48;100650.13;5057040;28;804;-45
2021/03/19 06:13:07;;;;;;;;;;;;;;;19.93;35.35;100657.81;5056817;28;1980;-47
2021/03/19 06:15:37;;;;;;;;;;;;;;;19.95;35.27;100658.34;5057132;28;752;-46
2021/03/19 06:18:04;;;;;;;;;;;;;;;19.40;36.43;100651.34;5056847;28;1022;-46
2021/03/19 06:20:30;;;;;;;;;;;;;;;19.06;37.25;100648.75;5056605;28;760;-47
2021/03/19 06:23:03;;;;;;;;;;;;;;;20.07;35.13;100657.88;5038651;28;866;-47
2021/03/19 06:25:34;;;;;;;;;;;;;;;19.96;35.12;100658.06;5039055;28;816;-46
2021/03/19 06:28:01;;;;;;;;;;;;;;;19.74;35.52;100655.03;5038518;28;803;-53
2021/03/19 06:30:26;;;;;;;;;;;;;;;19.52;35.99;100650.09;5056651;28;824;-46
2021/03/19 06:33:02;;;;;;;;;;;;;;;18.87;37.42;100649.50;5056122;28;1938;-45
2021/03/19 06:35:32;;;;;;;;;;;;;;;19.95;35.45;100656.41;5036844;28;1424;-58
2021/03/19 06:38:18;;;;;;;;;;;;;;;20.06;34.80;100648.78;5039542;28;764;-58
2021/03/19 06:40:43;;;;;;;;;;;;;;;19.86;35.33;100662.91;5056257;28;1240;-58
2021/03/19 06:43:12;;;;;;;;;;;;;;;19.55;35.95;100655.03;5055983;28;783;-47
2021/03/19 06:45:37;;;;;;;;;;;;;;;18.88;37.43;100669.63;5056839;28;787;-49
2021/03/19 06:48:03;;;;;;;;;;;;;;;19.82;35.35;100666.28;5056258;28;955;-50
2021/03/19 06:50:30;;;;;;;;;;;;;;;20.13;34.83;100671.31;5055936;28;724;-59
2021/03/19 06:53:14;;;;;;;;;;;;;;;19.91;35.18;100676.59;5056137;28;1972;-47
2021/03/19 06:55:40;;;;;;;;;;;;;;;19.70;35.53;100668.63;5055950;28;863;-50
2021/03/19 06:58:06;;;;;;;;;;;;;;;19.02;37.12;100684.34;5056133;28;772;-48
2021/03/19 07:00:40;;;;;;;;;;;;;;;19.83;35.54;100686.41;5056245;28;787;-55
2021/03/19 07:03:17;;;;;;;;;;;;;;;20.39;34.17;100692.97;5038174;28;960;-48
2021/03/19 07:05:46;;;;;;;;;;;;;;;19.92;35.06;100689.28;5056079;28;768;-47
2021/03/19 07:08:20;;;;;;;;;;;;;;;19.80;35.33;100693.31;5056051;28;811;-45
2021/03/19 07:10:50;;;;;;;;;;;;;;;19.20;36.48;100701.25;5056039;28;736;-45
2021/03/19 07:13:27;;;;;;;;;;;;;;;19.63;35.78;100704.03;5055548;28;1975;-45
2021/03/19 07:15:58;;;;;;;;;;;;;;;20.30;34.50;100706.66;5055754;28;839;-53
2021/03/19 07:18:36;;;;;;;;;;;;;;;19.84;35.09;100712.88;5038131;28;956;-45
2021/03/19 07:21:28;;;;;;;;;;;;;;;19.75;35.34;100717.38;5055462;28;799;-45
2021/03/19 07:24:12;;;;;;;;;;;;;;;19.13;36.54;100713.41;5038179;28;740;-44
2021/03/19 07:26:38;;;;;;;;;;;;;;;18.83;37.27;100717.31;5056025;28;822;-45
2021/03/19 07:29:07;;;;;;;;;;;;;;;19.94;35.05;100717.44;5037541;28;764;-46
2021/03/19 07:31:59;;;;;;;;;;;;;;;20.11;34.61;100711.38;5055630;28;1906;-50
2021/03/19 07:34:25;;;;;;;;;;;;;;;19.88;35.29;100721.38;5052665;28;1180;-48
2021/03/19 07:36:56;;;;;;;;;;;;;;;19.68;35.45;100714.97;5055673;28;805;-45
2021/03/19 07:39:34;;;;;;;;;;;;;;;19.02;36.99;100716.59;5055773;28;776;-45
2021/03/19 07:42:16;;;;;;;;;;;;;;;20.05;35.00;100716.16;5037842;28;827;-58
2021/03/19 07:44:50;;;;;;;;;;;;;;;19.99;35.00;100706.28;5038280;28;748;-47
2021/03/19 07:47:27;;;;;;;;;;;;;;;19.78;35.43;100712.09;5041329;28;1018;-46
2021/03/19 07:50:12;;;;;;;;;;;;;;;19.33;36.29;100711.53;5059002;28;733;-49
2021/03/19 07:52:46;;;;;;;;;;;;;;;19.25;36.34;100710.28;5041876;28;1980;-46
2021/03/19 07:55:11;;;;;;;;;;;;;;;20.37;34.16;100711.81;5059478;28;729;-58
2021/03/19 07:57:53;;;;;;;;;;;;;;;19.86;34.96;100709.81;5059038;28;745;-46
2021/03/19 08:00:19;;;;;;;;;;;;;;;19.89;35.00;100711.97;5059322;28;887;-50
2021/03/19 08:02:48;;;;;;;;;;;;;;;19.45;36.07;100706.44;5025177;28;952;-51
2021/03/19 08:05:13;;;;;;;;;;;;;;;19.19;36.64;100710.63;5058855;28;781;-46
2021/03/19 08:07:44;;;;;;;;;;;;;;;20.08;34.60;100709.22;5059347;28;736;-46
2021/03/19 08:10:22;;;;;;;;;;;;;;;19.92;34.85;100711.38;5059084;28;729;-58
2021/03/19 08:13:01;;;;;;;;;;;;;;;19.82;35.06;100713.19;5058893;28;1971;-49
2021/03/19 08:15:38;;;;;;;;;;;;;;;19.29;36.08;100714.09;5041283;28;893;-47
2021/03/19 08:18:04;;;;;;;;;;;;;;;18.98;36.83;100706.16;5059134;28;1010;-57
2021/03/19 08:20:37;;;;;;;;;;;;;;;20.04;34.76;100709.00;5058602;28;917;-52
2021/03/19 08:23:21;;;;;;;;;;;;;;;20.02;34.83;100711.25;5058946;28;756;-57
2021/03/19 08:25:47;;;;;;;;;;;;;;;19.85;35.02;100710.94;5059156;28;752;-58
2021/03/19 08:28:16;;;;;;;;;;;;;;;19.31;36.04;100705.53;5058894;28;753;-48
2021/03/19 08:30:45;;;;;;;;;;;;;;;18.92;36.76;100699.03;5048469;28;916;-45
2021/03/19 08:33:16;;;;;;;;;;;;;;;20.01;34.95;100698.56;5058937;28;1906;-55
2021/03/19 08:35:41;;;;;;;;;;;;;;;19.94;34.77;100698.13;5058475;28;757;-51
2021/03/19 08:38:07;;;;;;;;;;;;;;;19.81;35.14;100706.00;5058485;28;772;-51
2021/03/19 08:40:38;;;;;;;;;;;;;;;19.46;35.86;100699.81;5058743;28;791;-46
2021/03/19 08:43:05;;;;;;;;;;;;;;;19.18;36.53;100703.44;5058170;28;1036;-50
2021/03/19 08:45:30;;;;;;;;;;;;;;;19.85;35.35;100708.16;5040476;28;876;-58
2021/03/19 08:47:56;;;;;;;;;;;;;;;20.33;34.24;100700.53;5058787;28;958;-45
2021/03/19 08:50:34;;;;;;;;;;;;;;;19.86;34.96;100696.00;5058566;28;791;-47
2021/03/19 08:53:02;;;;;;;;;;;;;;;19.83;35.13;100703.75;5040514;28;1981;-49
2021/03/19 08:55:32;;;;;;;;;;;;;;;19.18;36.42;100700.69;5058652;28;756;-58
2021/03/19 08:57:58;;;;;;;;;;;;;;;19.61;35.54;100695.22;5057304;28;783;-47
2021/03/19 09:00:23;;;;;;;;;;;;;;;20.39;34.07;100692.97;5040324;28;1437;-48
2021/03/19 09:03:01;;;;;;;;;;;;;;;19.93;34.74;100697.28;5058262;28;959;-47
2021/03/19 09:05:34;;;;;;;;;;;;;;;19.74;35.14;100702.78;5057706;28;772;-58
2021/03/19 09:08:13;;;;;;;;;;;;;;;19.22;36.25;100708.06;5023306;28;1043;-46
2021/03/19 09:10:38;;;;;;;;;;;;;;;19.68;35.38;100701.19;5040305;28;799;-47
2021/03/19 09:13:11;;;;;;;;;;;;;;;20.46;33.79;100698.94;5057608;28;1981;-46
2021/03/19 09:15:39;;;;;;;;;;;;;;;19.95;34.71;100710.78;5057850;28;753;-44
2021/03/19 09:18:11;;;;;;;;;;;;;;;19.85;35.17;100710.94;5073634;28;964;-47
2021/03/19 09:20:36;;;;;;;;;;;;;;;19.25;36.34;100712.19;5078290;28;784;-45
2021/03/19 09:23:08;;;;;;;;;;;;;;;19.42;35.87;100709.78;5077952;28;740;-46
2021/03/19 09:25:45;;;;;;;;;;;;;;;20.40;33.88;100711.19;5077723;28;764;-48
2021/03/19 09:28:11;;;;;;;;;;;;;;;19.90;34.95;100708.09;5077673;28;820;-46
2021/03/19 09:30:37;;;;;;;;;;;;;;;19.98;34.65;100711.00;5077822;28;756;-44
2021/03/19 09:33:03;;;;;;;;;;;;;;;19.42;35.74;100715.31;5076360;28;1971;-45
2021/03/19 09:35:34;;;;;;;;;;;;;;;19.02;36.66;100717.41;5077705;28;921;-44
2021/03/19 09:38:00;;;;;;;;;;;;;;;20.11;34.64;100723.22;5077660;28;811;-58
2021/03/19 09:40:38;;;;;;;;;;;;;;;20.10;34.41;100729.88;5077174;28;812;-47
2021/03/19 09:43:03;;;;;;;;;;;;;;;19.88;34.87;100726.88;5077307;28;822;-45
2021/03/19 09:45:34;;;;;;;;;;;;;;;19.65;35.24;100723.84;5059750;28;673;-45
2021/03/19 09:48:22;;;;;;;;;;;;;;;19.10;36.39;100725.03;5063671;28;954;-50
2021/03/19 09:50:51;;;;;;;;;;;;;;;20.10;34.46;100715.25;5057358;28;784;-44
2021/03/19 09:53:17;;;;;;;;;;;;;;;20.26;34.08;100718.59;5039534;28;1978;-47
2021/03/19 09:55:44;;;;;;;;;;;;;;;19.95;34.55;100711.59;5056911;28;777;-47
2021/03/19 09:58:19;;;;;;;;;;;;;;;19.64;35.35;100716.69;5057313;28;867;-58
2021/03/19 10:00:48;;;;;;;;;;;;;;;19.09;36.73;100714.31;5039374;28;898;-44
2021/03/19 10:03:13;;;;;;;;;;;;;;;19.69;35.28;100713.88;5038964;28;1042;-45
2021/03/19 10:05:42;;;;;;;;;;;;;;;20.47;33.79;100722.69;5057356;28;519;-46
2021/03/19 10:08:09;;;;;;;;;;;;;;;19.97;34.80;100730.63;5057158;28;783;-48
2021/03/19 10:10:34;;;;;;;;;;;;;;;20.03;34.62;100734.13;5056455;28;938;-46
2021/03/19 10:13:07;;;;;;;;;;;;;;;19.31;36.06;100724.81;5057149;28;1914;-45
2021/03/19 10:15:32;;;;;;;;;;;;;;;18.92;36.98;100723.03;5056839;28;796;-44
2021/03/19 10:17:59;;;;;;;;;;;;;;;20.15;34.45;100727.03;5056537;28;1018;-54
2021/03/19 10:20:29;;;;;;;;;;;;;;;20.05;34.73;100716.16;5057064;28;764;-44
2021/03/19 10:22:55;;;;;;;;;;;;;;;19.97;34.76;100722.34;5056802;28;851;-44
2021/03/19 10:25:25;;;;;;;;;;;;;;;19.54;35.58;100727.84;5038603;28;769;-45
2021/03/19 10:27:53;;;;;;;;;;;;;;;19.12;36.43;100730.25;5056924;28;973;-48
2021/03/19 10:30:24;;;;;;;;;;;;;;;19.89;35.00;100731.28;5056742;28;839;-45
2021/03/19 10:32:49;;;;;;;;;;;;;;;20.37;33.90;100728.38;5049659;28;1914;-46
2021/03/19 10:35:18;;;;;;;;;;;;;;;19.86;35.09;100726.38;5076827;28;756;-45
2021/03/19 10:37:51;;;;;;;;;;;;;;;19.73;35.28;100728.72;5076256;28;799;-44
2021/03/19 10:40:20;;;;;;;;;;;;;;;19.17;36.32;100726.59;5058544;28;820;-44
2021/03/19 10:42:55;;;;;;;;;;;;;;;19.01;36.67;100723.22;5058327;28;917;-44
2021/03/19 10:45:36;;;;;;;;;;;;;;;20.04;34.76;100733.84;5076095;28;728;-44
2021/03/19 10:48:05;;;;;;;;;;;;;;;20.05;34.54;100732.72;5075257;28;943;-45
2021/03/19 10:50:35;;;;;;;;;;;;;;;19.88;35.10;100729.63;5075810;28;1299;-48
2021/03/19 10:53:04;;;;;;;;;;;;;;;19.52;35.72;100722.63;5058341;28;1921;-45
2021/03/19 10:55:31;;;;;;;;;;;;;;;18.92;36.90;100725.78;5058124;28;753;-45
2021/03/19 10:58:15;;;;;;;;;;;;;;;19.83;35.26;100731.34;5058404;28;777;-44
2021/03/19 11:00:43;;;;;;;;;;;;;;;20.34;34.11;100729.78;5076517;28;811;-44
2021/03/19 11:03:11;;;;;;;;;;;;;;;19.85;35.03;100730.25;5060921;28;974;-44
2021/03/19 11:05:56;;;;;;;;;;;;;;;19.67;35.07;100732.66;5056103;28;848;-44
2021/03/19 11:08:22;;;;;;;;;;;;;;;19.03;36.42;100729.22;5055980;28;1076;-44
2021/03/19 11:10:49;;;;;;;;;;;;;;;19.60;35.65;100726.66;5056034;28;741;-44
2021/03/19 11:13:17;;;;;;;;;;;;;;;20.43;33.76;100729.13;5055809;28;1910;-44
2021/03/19 11:15:43;;;;;;;;;;;;;;;19.88;34.77;100726.88;5055966;28;1003;-58
2021/03/19 11:18:22;;;;;;;;;;;;;;;19.93;34.94;100726.81;5055628;28;968;-47
2021/03/19 11:20:58;;;;;;;;;;;;;;;19.47;35.79;100729.03;5058251;28;855;-48
2021/03/19 11:23:24;;;;;;;;;;;;;;;19.01;36.52;100725.97;5044510;28;903;-46
2021/03/19 11:25:50;;;;;;;;;;;;;;;18.94;36.69;100727.13;5062616;28;900;-46
2021/03/19 11:28:28;;;;;;;;;;;;;;;19.19;36.38;100716.94;5062470;28;823;-52
2021/03/19 11:30:53;;;;;;;;;;;;;;;19.36;36.19;100710.94;5063086;28;815;-57
2021/03/19 11:33:20;;;;;;;;;;;;;;;19.54;35.83;100714.06;5061889;28;1981;-44
2021/03/19 11:36:04;;;;;;;;;;;;;;;19.59;35.61;100714.00;5044724;28;772;-44
2021/03/19 11:38:32;;;;;;;;;;;;;;;19.61;35.54;100701.53;5062860;28;839;-44
2021/03/19 11:40:57;;;;;;;;;;;;;;;19.62;35.42;100692.16;5061528;28;796;-45
2021/03/19 11:43:24;;;;;;;;;;;;;;;19.66;35.44;100692.41;5062289;28;716;-44
2021/03/19 11:45:50;;;;;;;;;;;;;;;19.59;35.56;100686.44;5044606;28;990;-45
2021/03/19 11:48:15;;;;;;;;;;;;;;;19.59;35.55;100686.44;5061922;28;948;-44
2021/03/19 11:50:41;;;;;;;;;;;;;;;19.54;35.41;100686.47;5062152;28;780;-44
2021/03/19 11:53:11;;;;;;;;;;;;;;;19.14;36.20;100690.25;5046619;28;1914;-46
2021/03/19 11:55:36;;;;;;;;;;;;;;;19.08;36.30;100682.34;5066874;28;1064;-56
2021/03/19 11:58:03;;;;;;;;;;;;;;;19.93;34.81;100675.19;5067399;28;1103;-47
2021/03/19 12:00:29;;;;;;;;;;;;;;;20.09;34.26;100672.19;5061921;28;820;-49
2021/03/19 12:02:55;;;;;;;;;;;;;;;19.81;35.11;100672.06;5073265;28;951;-47
2021/03/19 12:05:21;;;;;;;;;;;;;;;19.59;35.56;100680.91;5082291;28;848;-46
2021/03/19 12:07:47;;;;;;;;;;;;;;;19.01;36.62;100670.84;5082183;28;855;-43
2021/03/19 12:10:12;;;;;;;;;;;;;;;19.99;34.60;100662.13;5081936;28;756;-42
2021/03/19 12:12:38;;;;;;;;;;;;;;;20.18;34.09;100656.59;5082277;28;2376;-55
2021/03/19 12:15:04;;;;;;;;;;;;;;;19.77;35.13;100666.31;5063881;28;799;-63
2021/03/19 12:17:29;;;;;;;;;;;;;;;19.59;35.36;100670.69;5074709;28;1193;-49
2021/03/19 12:19:55;;;;;;;;;;;;;;;19.10;36.41;100675.44;5072884;28;1273;-47
2021/03/19 12:22:20;;;;;;;;;;;;;;;19.70;35.38;100660.34;5071221;28;1380;-45
2021/03/19 12:24:46;;;;;;;;;;;;;;;20.38;33.91;100663.72;5078781;28;1213;-45
2021/03/19 12:27:14;;;;;;;;;;;;;;;19.91;34.75;100663.66;5081892;28;759;-46
2021/03/19 12:29:39;;;;;;;;;;;;;;;19.89;34.75;100667.81;5081639;28;1284;-51
2021/03/19 12:32:05;;;;;;;;;;;;;;;19.36;36.00;100669.59;5079107;28;1914;-51
2021/03/19 12:34:30;;;;;;;;;;;;;;;19.47;35.80;100671.13;5078875;28;747;-50
2021/03/19 12:36:56;;;;;;;;;;;;;;;20.25;34.31;100675.56;5078446;28;756;-44
2021/03/19 12:39:22;;;;;;;;;;;;;;;20.81;33.32;100671.03;5078767;28;810;-44
2021/03/19 12:41:47;;;;;;;;;;;;;;;20.50;33.62;100669.59;5078678;28;894;-44
2021/03/19 12:44:13;;;;;;;;;;;;;;;20.20;34.16;100673.69;5078590;28;807;-45
2021/03/19 12:46:38;;;;;;;;;;;;;;;19.78;34.78;100669.88;5077518;28;880;-45
2021/03/19 12:49:04;;;;;;;;;;;;;;;19.22;35.87;100674.19;5078781;28;717;-58
2021/03/19 12:51:30;;;;;;;;;;;;;;;18.92;36.80;100673.44;5060553;28;1988;-48
2021/03/19 12:53:55;;;;;;;;;;;;;;;19.62;35.52;100677.56;5078235;28;740;-44
2021/03/19 12:56:21;;;;;;;;;;;;;;;20.46;33.92;100673.28;5078302;28;783;-45
2021/03/19 12:58:46;;;;;;;;;;;;;;;20.05;34.33;100677.50;5078525;28;771;-45
2021/03/19 13:01:13;;;;;;;;;;;;;;;20.04;34.53;100672.31;5076640;28;1188;-54
2021/03/19 13:03:38;;;;;;;;;;;;;;;19.43;35.75;100678.34;5071066;28;848;-57
2021/03/19 13:06:04;;;;;;;;;;;;;;;18.97;36.54;100674.19;5073966;28;939;-52